TimeCST,TemperatureF,Dew PointF,Humidity,Sea Level PressureIn,VisibilityMPH,Wind Direction,Wind SpeedMPH,Gust SpeedMPH,PrecipitationIn,Events,Conditions,WindDirDegrees,DateUTC
12:15 AM,2.1,-4.0,76,30.58,10.0,West,5.8,-,N/A,,Clear,270,2014-02-06 06:15:00
12:35 AM,2.7,-3.6,75,30.58,10.0,West,4.6,-,N/A,,Scattered Clouds,280,2014-02-06 06:35:00
12:55 AM,3.2,-3.3,74,30.57,10.0,WNW,5.8,-,N/A,,Scattered Clouds,290,2014-02-06 06:55:00
1:15 AM,2.8,-3.6,74,30.57,10.0,WNW,6.9,-,N/A,,Clear,290,2014-02-06 07:15:00
1:35 AM,2.7,-4.0,74,30.57,10.0,West,6.9,-,N/A,,Scattered Clouds,280,2014-02-06 07:35:00
1:55 AM,2.1,-4.4,74,30.56,10.0,WNW,5.8,-,N/A,,Clear,290,2014-02-06 07:55:00
2:15 AM,1.6,-4.9,74,30.57,10.0,WNW,6.9,-,N/A,,Clear,290,2014-02-06 08:15:00
2:35 AM,1.4,-4.9,75,30.56,10.0,WNW,5.8,-,N/A,,Clear,290,2014-02-06 08:35:00
2:55 AM,1.0,-5.3,75,30.55,10.0,WNW,5.8,-,N/A,,Clear,300,2014-02-06 08:55:00
3:15 AM,0.1,-5.6,77,30.54,10.0,WNW,5.8,-,N/A,,Clear,290,2014-02-06 09:15:00
3:35 AM,-1.1,-6.9,77,30.55,10.0,West,4.6,-,N/A,,Scattered Clouds,280,2014-02-06 09:35:00
3:55 AM,-0.4,-6.2,77,30.55,10.0,WNW,5.8,-,N/A,,Scattered Clouds,290,2014-02-06 09:55:00
4:15 AM,-0.4,-6.3,76,30.56,10.0,West,4.6,-,N/A,,Clear,280,2014-02-06 10:15:00
4:35 AM,-1.5,-7.1,77,30.56,10.0,West,5.8,-,N/A,,Scattered Clouds,280,2014-02-06 10:35:00
4:55 AM,-1.1,-6.5,78,30.56,10.0,West,6.9,-,N/A,,Clear,280,2014-02-06 10:55:00
5:15 AM,-1.1,-6.3,79,30.56,10.0,WNW,6.9,-,N/A,,Clear,300,2014-02-06 11:15:00
5:35 AM,-2.2,-7.6,78,30.57,10.0,West,5.8,-,N/A,,Scattered Clouds,280,2014-02-06 11:35:00
5:55 AM,-2.4,-7.8,78,30.56,10.0,West,5.8,-,N/A,,Scattered Clouds,280,2014-02-06 11:55:00
6:15 AM,-4.2,-9.2,79,30.57,10.0,West,4.6,-,N/A,,Clear,270,2014-02-06 12:15:00
6:35 AM,-4.0,-9.0,79,30.57,10.0,West,4.6,-,N/A,,Scattered Clouds,280,2014-02-06 12:35:00
6:55 AM,-3.3,-8.5,78,30.56,10.0,WNW,5.8,-,N/A,,Scattered Clouds,290,2014-02-06 12:55:00
7:15 AM,-5.4,-10.7,78,30.57,10.0,West,5.8,-,N/A,,Scattered Clouds,280,2014-02-06 13:15:00
7:35 AM,-3.1,-8.5,78,30.57,10.0,WNW,4.6,-,N/A,,Clear,290,2014-02-06 13:35:00
7:55 AM,-3.1,-8.7,77,30.57,10.0,West,5.8,-,N/A,,Clear,280,2014-02-06 13:55:00
8:15 AM,-2.2,-8.5,75,30.58,10.0,West,6.9,-,N/A,,Scattered Clouds,270,2014-02-06 14:15:00
8:35 AM,-0.8,-8.0,72,30.59,10.0,West,10.4,-,N/A,,Clear,270,2014-02-06 14:35:00
8:55 AM,-0.6,-8.0,71,30.59,10.0,West,8.1,-,N/A,,Scattered Clouds,280,2014-02-06 14:55:00
9:15 AM,0.1,-7.8,69,30.60,10.0,WNW,8.1,-,N/A,,Clear,290,2014-02-06 15:15:00
9:35 AM,0.5,-7.8,68,30.61,10.0,WNW,8.1,-,N/A,,Scattered Clouds,290,2014-02-06 15:35:00
9:55 AM,1.2,-7.6,67,30.61,10.0,West,8.1,-,N/A,,Clear,280,2014-02-06 15:55:00
10:15 AM,1.9,-7.1,66,30.61,10.0,WNW,8.1,-,N/A,,Clear,290,2014-02-06 16:15:00
10:35 AM,3.0,-6.7,64,30.61,10.0,West,9.2,-,N/A,,Scattered Clouds,280,2014-02-06 16:35:00
10:55 AM,3.9,-6.0,64,30.61,10.0,WNW,8.1,-,N/A,,Scattered Clouds,290,2014-02-06 16:55:00
11:15 AM,4.6,-5.8,62,30.60,10.0,WNW,6.9,-,N/A,,Clear,290,2014-02-06 17:15:00
11:35 AM,5.7,-4.7,62,30.59,10.0,WNW,8.1,-,N/A,,Clear,300,2014-02-06 17:35:00
11:55 AM,6.1,-4.7,61,30.58,10.0,WNW,6.9,-,N/A,,Clear,300,2014-02-06 17:55:00
12:15 PM,6.6,-4.5,60,30.57,10.0,West,9.2,-,N/A,,Clear,280,2014-02-06 18:15:00
12:35 PM,6.8,-4.4,60,30.56,10.0,WNW,10.4,-,N/A,,Clear,300,2014-02-06 18:35:00
12:55 PM,7.2,-4.5,59,30.54,10.0,WNW,6.9,-,N/A,,Clear,290,2014-02-06 18:55:00
1:15 PM,7.9,-3.6,59,30.53,10.0,WNW,8.1,-,N/A,,Clear,290,2014-02-06 19:15:00
1:35 PM,7.7,-3.6,60,30.53,10.0,West,8.1,-,N/A,,Clear,260,2014-02-06 19:35:00
1:55 PM,8.1,-3.5,59,30.52,10.0,West,8.1,-,N/A,,Clear,260,2014-02-06 19:55:00
2:15 PM,8.4,-3.5,59,30.52,10.0,West,6.9,-,N/A,,Clear,260,2014-02-06 20:15:00
2:35 PM,8.8,-3.3,58,30.51,10.0,West,8.1,-,N/A,,Clear,280,2014-02-06 20:35:00
2:55 PM,9.5,-2.7,58,30.51,10.0,West,10.4,-,N/A,,Scattered Clouds,280,2014-02-06 20:55:00
3:15 PM,9.5,-3.3,56,30.51,10.0,West,8.1,-,N/A,,Clear,270,2014-02-06 21:15:00
3:35 PM,9.5,-2.7,58,30.51,10.0,West,6.9,-,N/A,,Clear,280,2014-02-06 21:35:00
3:55 PM,9.5,-3.6,55,30.51,10.0,West,9.2,-,N/A,,Clear,260,2014-02-06 21:55:00
4:15 PM,9.3,-4.2,54,30.51,10.0,West,8.1,-,N/A,,Clear,270,2014-02-06 22:15:00
4:35 PM,9.1,-4.4,54,30.51,10.0,West,9.2,-,N/A,,Clear,270,2014-02-06 22:35:00
4:55 PM,9.0,-4.0,56,30.50,10.0,West,6.9,-,N/A,,Clear,270,2014-02-06 22:55:00
5:15 PM,8.2,-4.0,58,30.50,10.0,West,3.5,-,N/A,,Clear,280,2014-02-06 23:15:00
5:35 PM,7.3,-3.6,61,30.50,10.0,West,3.5,-,N/A,,Clear,270,2014-02-06 23:35:00
5:55 PM,6.6,-4.2,61,30.50,10.0,WSW,3.5,-,N/A,,Clear,250,2014-02-06 23:55:00
6:15 PM,5.4,-4.0,65,30.50,10.0,Calm,Calm,-,N/A,,Clear,0,2014-02-07 00:15:00
6:35 PM,4.8,-3.8,68,30.50,10.0,WSW,3.5,-,N/A,,Clear,240,2014-02-07 00:35:00
6:55 PM,4.8,-4.0,67,30.50,10.0,Calm,Calm,-,N/A,,Clear,0,2014-02-07 00:55:00
7:15 PM,3.6,-4.2,70,30.49,10.0,SSW,3.5,-,N/A,,Clear,210,2014-02-07 01:15:00
7:35 PM,1.2,-4.9,75,30.49,10.0,SSW,3.5,-,N/A,,Clear,210,2014-02-07 01:35:00
7:55 PM,-1.7,-6.7,79,30.49,10.0,SSW,3.5,-,N/A,,Clear,200,2014-02-07 01:55:00
8:15 PM,1.2,-4.9,75,30.48,10.0,Calm,Calm,-,N/A,,Clear,0,2014-02-07 02:15:00
8:35 PM,0.5,-5.1,77,30.49,10.0,WSW,4.6,-,N/A,,Clear,240,2014-02-07 02:35:00
8:55 PM,-0.9,-6.3,78,30.48,10.0,WSW,3.5,-,N/A,,Clear,240,2014-02-07 02:55:00
9:15 PM,0.3,-5.8,75,30.49,10.0,WSW,4.6,-,N/A,,Clear,250,2014-02-07 03:15:00
9:35 PM,-3.1,-8.5,78,30.48,10.0,West,3.5,-,N/A,,Scattered Clouds,260,2014-02-07 03:35:00
9:55 PM,-0.9,-6.5,77,30.50,10.0,WSW,3.5,-,N/A,,Clear,250,2014-02-07 03:55:00
10:15 PM,-3.1,-7.8,80,30.50,10.0,SW,4.6,-,N/A,,Clear,220,2014-02-07 04:15:00
10:35 PM,-1.1,-6.7,77,30.49,10.0,WSW,4.6,-,N/A,,Clear,250,2014-02-07 04:35:00
10:55 PM,-2.2,-7.8,77,30.49,10.0,WSW,4.6,-,N/A,,Clear,240,2014-02-07 04:55:00
11:15 PM,-1.7,-7.1,78,30.49,10.0,WSW,3.5,-,N/A,,Clear,240,2014-02-07 05:15:00
11:35 PM,-1.3,-6.7,78,30.48,10.0,WSW,4.6,-,N/A,,Clear,250,2014-02-07 05:35:00
11:55 PM,-3.8,-8.5,80,30.48,10.0,SW,3.5,-,N/A,,Scattered Clouds,230,2014-02-07 05:55:00